Time;durP1;ratioP1;P1;durP2;ratioP2;P2;SDS_P1;SDS_P2;PMS_P1;PMS_P2;Temp;Humidity;BMP_temperature;BMP_pressure;BME280_temperature;BME280_humidity;BME280_pressure;Samples;Min_cycle;Max_cycle;Signal;HPM_P1;HPM_P2
2021/04/25 00:02:23;;;;;;;5.32;3.50;;;18.10;50.20;;;;;;5026028;28;20179;-60
2021/04/25 00:04:49;;;;;;;4.55;3.60;;;18.10;50.30;;;;;;5025531;28;20037;-61
2021/04/25 00:07:14;;;;;;;4.55;3.33;;;18.00;50.30;;;;;;5043044;28;20021;-60
2021/04/25 00:09:40;;;;;;;5.13;3.47;;;18.00;50.40;;;;;;5041202;28;20064;-60
2021/04/25 00:12:06;;;;;;;4.93;3.45;;;18.00;50.40;;;;;;5026128;28;20029;-60
2021/04/25 00:14:32;;;;;;;4.68;3.42;;;17.90;50.40;;;;;;5042851;28;20027;-60
2021/04/25 00:16:57;;;;;;;8.35;3.38;;;17.90;50.50;;;;;;5026035;28;20037;-61
2021/04/25 00:19:23;;;;;;;7.38;3.78;;;17.90;50.50;;;;;;5042562;28;20060;-60
2021/04/25 00:21:48;;;;;;;4.22;3.25;;;17.80;50.50;;;;;;5041138;28;20040;-60
2021/04/25 00:24:14;;;;;;;6.13;3.47;;;17.80;50.60;;;;;;5041998;28;20029;-62
2021/04/25 00:26:39;;;;;;;5.13;3.38;;;17.80;50.70;;;;;;5043672;28;20053;-61
2021/04/25 00:29:05;;;;;;;5.18;3.80;;;17.70;50.70;;;;;;5025118;28;20132;-61
2021/04/25 00:31:31;;;;;;;6.03;3.92;;;17.70;50.70;;;;;;5043241;28;20518;-61
2021/04/25 00:33:57;;;;;;;5.53;3.53;;;17.70;50.80;;;;;;5037486;28;20361;-60
2021/04/25 00:36:23;;;;;;;5.07;3.45;;;17.60;50.80;;;;;;5040110;28;20053;-60
2021/04/25 00:38:48;;;;;;;4.38;3.30;;;17.60;50.80;;;;;;5022545;28;20025;-62
2021/04/25 00:41:14;;;;;;;4.82;3.60;;;17.60;50.80;;;;;;5043668;28;20055;-60
2021/04/25 00:43:39;;;;;;;5.63;3.60;;;17.60;51.50;;;;;;5043546;28;20108;-60
2021/04/25 00:46:05;;;;;;;5.13;3.72;;;17.60;51.00;;;;;;5024629;28;20098;-61
2021/04/25 00:48:30;;;;;;;4.72;3.47;;;17.50;51.00;;;;;;5021644;28;20103;-60
2021/04/25 00:50:56;;;;;;;4.25;3.38;;;17.50;51.00;;;;;;5041143;28;20039;-60
2021/04/25 00:53:21;;;;;;;4.97;3.30;;;17.50;51.10;;;;;;5022527;28;20036;-61
2021/04/25 00:55:47;;;;;;;5.05;3.58;;;17.40;51.00;;;;;;5026538;28;20048;-60
2021/04/25 00:58:13;;;;;;;5.95;3.28;;;17.40;51.10;;;;;;5042087;28;20492;-60
2021/04/25 01:00:38;;;;;;;5.38;3.42;;;17.40;51.10;;;;;;5042153;28;20570;-61
2021/04/25 01:03:04;;;;;;;6.05;4.00;;;17.40;51.20;;;;;;5040007;28;20043;-61
2021/04/25 01:05:29;;;;;;;4.72;3.40;;;17.30;51.30;;;;;;5025154;28;20025;-60
2021/04/25 01:07:55;;;;;;;6.07;4.13;;;17.30;51.30;;;;;;5024091;28;20052;-60
2021/04/25 01:10:20;;;;;;;4.30;3.40;;;17.30;51.30;;;;;;5025096;28;20032;-60
2021/04/25 01:12:46;;;;;;;4.55;3.53;;;17.30;51.40;;;;;;5023541;28;20055;-60
2021/04/25 01:15:13;;;;;;;5.70;3.40;;;17.20;51.30;;;;;;5006095;28;20072;-61
2021/04/25 01:17:40;;;;;;;7.32;4.05;;;17.20;51.30;;;;;;5024202;28;20542;-60
2021/04/25 01:20:07;;;;;;;4.10;3.03;;;17.20;51.40;;;;;;5023641;28;20029;-60
2021/04/25 01:22:32;;;;;;;4.75;3.42;;;17.20;51.40;;;;;;5022516;28;20102;-61
2021/04/25 01:24:58;;;;;;;4.05;3.30;;;17.20;51.40;;;;;;5042601;28;20476;-60
2021/04/25 01:27:23;;;;;;;5.15;3.40;;;17.20;51.50;;;;;;5038302;28;20045;-60
2021/04/25 01:29:49;;;;;;;6.20;3.42;;;17.10;51.60;;;;;;5040651;28;20021;-60
2021/04/25 01:32:14;;;;;;;4.35;3.28;;;17.10;51.60;;;;;;5041008;28;20071;-60
2021/04/25 01:34:40;;;;;;;4.57;3.25;;;17.10;51.60;;;;;;5041628;28;20107;-61
2021/04/25 01:37:05;;;;;;;5.32;3.58;;;17.00;51.60;;;;;;5021680;28;20037;-60
2021/04/25 01:39:31;;;;;;;6.35;3.75;;;17.00;51.60;;;;;;5040669;28;20046;-60
2021/04/25 01:41:56;;;;;;;3.70;3.00;;;17.00;51.70;;;;;;5022087;28;20120;-61
2021/04/25 01:44:22;;;;;;;6.38;3.40;;;17.00;51.70;;;;;;5024355;28;20041;-60
2021/04/25 01:46:48;;;;;;;6.82;3.50;;;16.90;51.70;;;;;;5008190;28;20048;-60
2021/04/25 01:49:14;;;;;;;4.60;3.40;;;16.90;51.80;;;;;;5042782;28;20029;-60
2021/04/25 01:51:42;;;;;;;4.55;3.30;;;16.90;51.80;;;;;;5039009;28;20029;-60
2021/04/25 01:54:08;;;;;;;6.20;3.65;;;16.90;51.90;;;;;;5006588;28;20055;-60
2021/04/25 01:56:34;;;;;;;5.78;3.33;;;16.80;51.80;;;;;;5040070;28;20477;-60
2021/04/25 01:58:59;;;;;;;3.88;3.17;;;16.80;51.90;;;;;;5043484;28;20033;-61
2021/04/25 02:01:25;;;;;;;5.15;2.85;;;16.80;52.00;;;;;;5041704;28;20032;-60
2021/04/25 02:03:51;;;;;;;6.32;3.60;;;16.80;52.00;;;;;;5024573;28;20028;-61
2021/04/25 02:06:16;;;;;;;4.75;3.33;;;16.70;52.10;;;;;;5021207;28;20763;-61
2021/04/25 02:08:42;;;;;;;5.70;3.47;;;16.70;52.10;;;;;;5040567;28;20060;-60
2021/04/25 02:11:07;;;;;;;3.65;3.30;;;16.60;52.10;;;;;;5023686;28;20029;-60
2021/04/25 02:13:33;;;;;;;4.53;3.00;;;16.60;52.10;;;;;;5042170;28;20025;-60
2021/04/25 02:15:58;;;;;;;4.95;3.67;;;16.60;52.20;;;;;;5024678;28;20029;-60
2021/04/25 02:18:24;;;;;;;4.30;3.45;;;16.60;52.20;;;;;;5041733;28;20187;-61
2021/04/25 02:20:49;;;;;;;3.70;3.05;;;16.60;52.20;;;;;;5039595;28;20390;-59
2021/04/25 02:23:15;;;;;;;4.20;2.75;;;16.50;52.30;;;;;;5022085;28;20109;-60
2021/04/25 02:25:41;;;;;;;5.20;3.38;;;16.50;52.30;;;;;;5041517;28;20105;-60
2021/04/25 02:28:06;;;;;;;5.03;3.50;;;16.50;52.30;;;;;;5046876;28;20047;-60
2021/04/25 02:30:33;;;;;;;5.32;3.63;;;16.50;52.40;;;;;;5026821;28;20029;-60
2021/04/25 02:32:58;;;;;;;3.75;3.15;;;16.40;52.30;;;;;;5026525;28;20033;-60
2021/04/25 02:35:24;;;;;;;4.82;3.35;;;16.40;52.40;;;;;;5043635;28;20047;-60
2021/04/25 02:37:50;;;;;;;4.55;3.42;;;16.40;52.40;;;;;;5007742;28;20029;-61
2021/04/25 02:40:18;;;;;;;4.47;3.20;;;16.30;52.40;;;;;;5046935;28;20115;-60
2021/04/25 02:42:43;;;;;;;5.50;3.00;;;16.30;52.40;;;;;;5045006;28;20021;-60
2021/04/25 02:45:15;;;;;;;4.10;3.25;;;16.40;52.50;;;;;;5010160;28;20381;-61
2021/04/25 02:47:43;;;;;;;4.53;3.30;;;16.30;52.40;;;;;;5044013;28;20033;-60
2021/04/25 02:50:09;;;;;;;5.55;3.30;;;16.30;52.50;;;;;;5025961;28;20507;-59
2021/04/25 02:52:34;;;;;;;5.88;3.80;;;16.30;52.50;;;;;;5044023;28;20033;-60
2021/04/25 02:55:00;;;;;;;3.67;2.85;;;16.20;52.50;;;;;;5045249;28;20017;-60
2021/04/25 02:57:25;;;;;;;4.13;3.10;;;16.20;52.60;;;;;;5026847;28;20385;-60
2021/04/25 02:59:50;;;;;;;6.13;3.45;;;16.20;52.70;;;;;;5010414;28;20133;-60
2021/04/25 03:02:16;;;;;;;6.53;3.75;;;16.20;52.70;;;;;;5045290;28;20498;-60
2021/04/25 03:04:41;;;;;;;6.68;3.70;;;16.10;52.70;;;;;;5043705;28;20032;-60
2021/04/25 03:07:07;;;;;;;4.18;3.10;;;16.10;52.70;;;;;;5045113;28;20031;-60
2021/04/25 03:09:33;;;;;;;4.82;3.20;;;16.10;52.70;;;;;;5022984;28;20039;-60
2021/04/25 03:11:58;;;;;;;5.10;3.20;;;16.10;52.70;;;;;;5042812;28;20114;-60
2021/04/25 03:14:24;;;;;;;4.85;3.30;;;16.00;52.70;;;;;;5044961;28;20225;-61
2021/04/25 03:16:49;;;;;;;4.35;3.40;;;16.00;52.80;;;;;;5044744;28;20037;-60
2021/04/25 03:19:15;;;;;;;4.10;3.10;;;16.00;52.80;;;;;;5043039;28;20445;-59
2021/04/25 03:21:40;;;;;;;5.35;3.20;;;15.90;52.80;;;;;;5043485;28;20025;-60
2021/04/25 03:24:06;;;;;;;5.70;3.55;;;15.90;52.90;;;;;;5042668;28;20032;-60
2021/04/25 03:26:32;;;;;;;6.40;3.60;;;15.90;52.90;;;;;;5042574;28;20049;-60
2021/04/25 03:28:57;;;;;;;4.97;3.22;;;15.90;53.00;;;;;;5026894;28;20570;-60
2021/04/25 03:31:23;;;;;;;4.15;3.08;;;15.90;53.00;;;;;;5043941;28;20116;-60
2021/04/25 03:33:48;;;;;;;3.78;3.10;;;15.80;53.00;;;;;;5027181;28;20037;-61
2021/04/25 03:36:14;;;;;;;3.75;2.92;;;15.90;53.10;;;;;;5042073;28;20040;-60
2021/04/25 03:38:39;;;;;;;5.07;3.15;;;15.80;53.00;;;;;;5021860;28;20040;-61
2021/04/25 03:41:05;;;;;;;4.30;3.30;;;15.80;53.00;;;;;;5026991;28;20047;-61
2021/04/25 03:43:30;;;;;;;5.90;3.50;;;15.80;53.00;;;;;;5043627;28;20028;-60
2021/04/25 03:45:56;;;;;;;4.28;3.35;;;15.70;53.00;;;;;;5027447;28;20400;-61
2021/04/25 03:48:22;;;;;;;4.45;3.17;;;15.70;53.10;;;;;;5042110;28;20026;-61
2021/04/25 03:50:47;;;;;;;5.68;3.42;;;15.70;53.10;;;;;;5041363;28;20033;-60
2021/04/25 03:53:13;;;;;;;5.40;3.67;;;15.70;53.10;;;;;;5022620;28;20550;-60
2021/04/25 03:55:39;;;;;;;5.18;3.30;;;15.70;53.20;;;;;;5027791;28;20029;-60
2021/04/25 03:58:04;;;;;;;4.65;3.45;;;15.60;53.20;;;;;;5043525;28;20036;-60
2021/04/25 04:00:30;;;;;;;6.32;3.10;;;15.60;53.20;;;;;;5044130;28;20017;-60
2021/04/25 04:02:55;;;;;;;6.95;3.38;;;15.60;53.20;;;;;;5040805;28;20096;-60
2021/04/25 04:05:21;;;;;;;4.90;3.45;;;15.60;53.20;;;;;;5024790;28;20040;-60
2021/04/25 04:07:46;;;;;;;4.70;3.65;;;15.60;53.20;;;;;;5041097;28;20542;-60
2021/04/25 04:10:12;;;;;;;11.75;3.53;;;15.60;53.20;;;;;;5044864;28;20443;-61
2021/04/25 04:12:38;;;;;;;6.85;3.45;;;15.60;53.30;;;;;;5018965;28;20028;-60
2021/04/25 04:15:04;;;;;;;9.45;3.70;;;15.60;53.30;;;;;;5021329;28;20037;-60
2021/04/25 04:17:30;;;;;;;5.18;3.85;;;15.60;53.30;;;;;;5019999;28;20029;-59
2021/04/25 04:19:56;;;;;;;17.35;3.95;;;15.60;53.30;;;;;;5004557;28;20076;-60
2021/04/25 04:22:21;;;;;;;12.82;3.72;;;15.50;53.30;;;;;;5020962;28;20017;-61
2021/04/25 04:24:47;;;;;;;10.43;3.67;;;15.50;53.40;;;;;;5006370;28;20484;-64
2021/04/25 04:27:12;;;;;;;8.60;3.35;;;15.50;53.50;;;;;;5020885;28;20057;-61
2021/04/25 04:29:37;;;;;;;7.57;3.63;;;15.50;53.50;;;;;;5039348;28;20020;-60
2021/04/25 04:32:03;;;;;;;10.15;3.90;;;15.50;53.50;;;;;;5038548;28;20392;-59
2021/04/25 04:34:29;;;;;;;10.50;3.63;;;15.50;53.60;;;;;;5022595;28;20044;-61
2021/04/25 04:36:54;;;;;;;8.98;3.45;;;15.50;53.60;;;;;;5019320;28;20047;-61
2021/04/25 04:39:20;;;;;;;9.43;3.70;;;15.50;53.70;;;;;;5041080;28;20412;-61
2021/04/25 04:41:45;;;;;;;9.32;4.05;;;15.50;53.70;;;;;;5020636;28;20025;-60
2021/04/25 04:44:11;;;;;;;8.77;3.40;;;15.50;53.80;;;;;;5036780;28;21303;-61
2021/04/25 04:46:36;;;;;;;10.77;3.30;;;15.50;53.90;;;;;;5005821;28;20065;-60
2021/04/25 04:49:02;;;;;;;6.63;3.38;;;15.50;53.80;;;;;;5022046;28;20033;-59
2021/04/25 04:51:28;;;;;;;10.50;3.65;;;15.50;53.90;;;;;;5005024;28;20048;-60
2021/04/25 04:53:53;;;;;;;16.27;4.15;;;15.40;53.90;;;;;;5037736;28;20029;-61
2021/04/25 04:56:19;;;;;;;13.77;3.85;;;15.40;54.00;;;;;;5039956;28;20037;-60
2021/04/25 04:58:44;;;;;;;10.68;3.50;;;15.40;54.10;;;;;;5038518;28;20033;-60
2021/04/25 05:01:10;;;;;;;16.05;3.83;;;15.40;54.00;;;;;;5040898;28;20123;-60
2021/04/25 05:03:35;;;;;;;12.75;3.90;;;15.40;54.00;;;;;;5040456;28;20025;-60
2021/04/25 05:06:01;;;;;;;14.75;4.75;;;15.40;54.10;;;;;;5037618;28;20472;-62
2021/04/25 05:08:26;;;;;;;20.23;4.45;;;15.40;54.30;;;;;;5019734;28;20032;-60
2021/04/25 05:10:52;;;;;;;9.65;3.58;;;15.40;54.50;;;;;;5020524;28;20037;-60
2021/04/25 05:13:17;;;;;;;10.05;4.00;;;15.40;54.40;;;;;;5018381;28;20040;-60
2021/04/25 05:15:43;;;;;;;15.32;4.22;;;15.40;54.50;;;;;;5022669;28;20033;-60
2021/04/25 05:18:08;;;;;;;16.90;3.88;;;15.40;54.60;;;;;;5005363;28;20075;-60
2021/04/25 05:20:34;;;;;;;11.63;3.45;;;15.40;54.60;;;;;;5021450;28;20048;-60
2021/04/25 05:23:00;;;;;;;14.82;3.95;;;15.30;54.60;;;;;;5000926;28;20045;-60
2021/04/25 05:25:26;;;;;;;13.20;4.05;;;15.30;54.60;;;;;;5021247;28;20029;-60
2021/04/25 05:27:51;;;;;;;14.27;3.75;;;15.30;54.60;;;;;;5039204;28;20033;-60
2021/04/25 05:30:17;;;;;;;15.23;4.07;;;15.30;54.70;;;;;;5038791;28;20149;-60
2021/04/25 05:32:43;;;;;;;14.20;3.78;;;15.30;54.60;;;;;;5020396;28;20044;-61
2021/04/25 05:35:08;;;;;;;13.73;4.53;;;15.30;54.60;;;;;;5019967;28;20041;-60
2021/04/25 05:37:34;;;;;;;8.63;3.97;;;15.30;54.70;;;;;;5003214;28;20047;-60
2021/04/25 05:39:59;;;;;;;11.63;4.15;;;15.30;54.80;;;;;;5021173;28;20029;-60
2021/04/25 05:42:25;;;;;;;9.23;3.67;;;15.20;54.80;;;;;;5021328;28;20033;-60
2021/04/25 05:44:51;;;;;;;12.75;4.20;;;15.20;54.90;;;;;;5037713;28;20037;-60
2021/04/25 05:47:17;;;;;;;8.95;3.67;;;15.20;55.00;;;;;;5038782;28;20049;-60
2021/04/25 05:49:42;;;;;;;21.10;4.45;;;15.20;54.80;;;;;;5019398;28;20425;-60
2021/04/25 05:52:08;;;;;;;9.77;3.67;;;15.20;54.90;;;;;;5037473;28;20036;-60
2021/04/25 05:54:33;;;;;;;13.55;3.97;;;15.20;54.90;;;;;;5038717;28;20025;-60
2021/04/25 05:56:59;;;;;;;11.55;3.85;;;15.10;54.80;;;;;;5020780;28;20044;-60
2021/04/25 05:59:24;;;;;;;10.57;3.55;;;15.10;54.80;;;;;;5020531;28;20112;-60
2021/04/25 06:01:50;;;;;;;11.85;3.90;;;15.20;55.00;;;;;;5040832;28;20041;-60
2021/04/25 06:04:16;;;;;;;16.73;4.15;;;15.10;54.90;;;;;;5044849;28;20481;-61
2021/04/25 06:06:41;;;;;;;8.30;3.80;;;15.10;55.40;;;;;;5045163;28;20017;-61
2021/04/25 06:09:07;;;;;;;9.35;3.80;;;15.10;55.50;;;;;;5044489;28;20029;-59
2021/04/25 06:11:33;;;;;;;9.63;3.83;;;15.10;55.40;;;;;;5028149;28;20035;-60
2021/04/25 06:13:59;;;;;;;7.10;3.80;;;15.10;55.50;;;;;;5024009;28;20376;-60
2021/04/25 06:16:24;;;;;;;11.43;4.15;;;15.00;55.60;;;;;;5027188;28;20041;-60
2021/04/25 06:18:50;;;;;;;10.35;4.05;;;15.00;55.70;;;;;;5044327;28;20068;-60
2021/04/25 06:21:15;;;;;;;14.20;3.83;;;15.00;56.00;;;;;;5045318;28;20112;-60
2021/04/25 06:23:41;;;;;;;8.20;3.13;;;15.00;56.10;;;;;;5025793;28;20021;-60
2021/04/25 06:26:06;;;;;;;11.50;3.80;;;15.00;56.30;;;;;;5043927;28;20044;-60
2021/04/25 06:28:32;;;;;;;10.82;3.70;;;15.00;56.40;;;;;;5044399;28;21368;-60
2021/04/25 06:30:57;;;;;;;18.77;4.35;;;14.90;56.40;;;;;;5042749;28;20032;-60
2021/04/25 06:33:23;;;;;;;7.55;3.60;;;14.90;56.50;;;;;;5025995;28;20517;-60
2021/04/25 06:35:49;;;;;;;11.95;3.92;;;14.90;56.60;;;;;;5045297;28;20025;-59
2021/04/25 06:38:15;;;;;;;12.93;4.05;;;14.90;56.70;;;;;;5043125;28;20469;-59
2021/04/25 06:40:41;;;;;;;9.68;3.63;;;14.90;56.60;;;;;;5027032;28;20639;-60
2021/04/25 06:43:06;;;;;;;7.32;4.10;;;14.80;56.50;;;;;;5025229;28;20174;-60
2021/04/25 06:45:32;;;;;;;6.55;4.45;;;14.80;56.50;;;;;;5026961;28;20100;-60
2021/04/25 06:47:57;;;;;;;13.13;4.63;;;14.80;56.40;;;;;;5042991;28;20051;-59
2021/04/25 06:50:23;;;;;;;14.57;4.20;;;14.80;56.40;;;;;;5010697;28;20108;-60
2021/04/25 06:52:48;;;;;;;11.35;4.35;;;14.80;56.40;;;;;;5008248;28;20029;-60
2021/04/25 06:55:17;;;;;;;10.88;4.20;;;14.70;56.30;;;;;;5026423;28;20373;-60
2021/04/25 06:57:46;;;;;;;9.25;4.75;;;14.80;56.30;;;;;;5045586;28;20048;-60
2021/04/25 07:00:12;;;;;;;13.15;4.47;;;14.80;56.20;;;;;;5044350;28;20025;-60
2021/04/25 07:02:38;;;;;;;9.95;3.70;;;14.80;56.20;;;;;;5028243;28;20116;-59
2021/04/25 07:05:04;;;;;;;10.65;3.85;;;14.80;56.10;;;;;;5042674;28;20117;-60
2021/04/25 07:07:30;;;;;;;9.05;4.88;;;14.70;56.10;;;;;;5025774;28;20063;-60
2021/04/25 07:09:56;;;;;;;14.55;4.65;;;14.90;56.00;;;;;;5025737;28;20032;-61
2021/04/25 07:12:21;;;;;;;10.90;4.70;;;14.60;55.80;;;;;;5020478;28;20487;-59
2021/04/25 07:14:47;;;;;;;11.30;5.68;;;14.70;55.70;;;;;;5020599;28;20029;-59
2021/04/25 07:17:12;;;;;;;8.75;4.65;;;14.70;55.70;;;;;;5019900;28;20033;-61
2021/04/25 07:19:38;;;;;;;10.18;5.00;;;14.70;55.70;;;;;;5015761;28;20073;-59
2021/04/25 07:22:04;;;;;;;8.63;4.50;;;14.70;55.80;;;;;;5017067;28;20056;-59
2021/04/25 07:24:29;;;;;;;11.02;4.38;;;14.70;55.70;;;;;;5020721;28;20064;-60
2021/04/25 07:26:55;;;;;;;5.85;4.22;;;14.70;55.70;;;;;;5038923;28;20110;-60
2021/04/25 07:29:21;;;;;;;8.45;4.18;;;14.60;55.60;;;;;;5007583;28;20506;-59
2021/04/25 07:31:46;;;;;;;14.50;4.65;;;14.60;55.70;;;;;;5039739;28;20062;-59
2021/04/25 07:34:12;;;;;;;12.55;5.22;;;14.60;55.70;;;;;;5019940;28;20033;-60
2021/04/25 07:36:37;;;;;;;8.52;4.40;;;14.60;55.60;;;;;;5039199;28;20035;-59
2021/04/25 07:39:04;;;;;;;8.50;4.68;;;14.60;55.60;;;;;;5037852;28;20326;-60
2021/04/25 07:41:30;;;;;;;11.40;4.70;;;14.60;55.60;;;;;;5023589;28;20080;-60
2021/04/25 07:43:56;;;;;;;7.68;4.38;;;14.60;55.60;;;;;;5039105;28;20029;-60
2021/04/25 07:46:22;;;;;;;11.95;4.80;;;14.60;55.50;;;;;;5005834;28;20052;-60
2021/04/25 07:48:47;;;;;;;7.38;4.70;;;14.60;56.20;;;;;;5038719;28;20025;-60
2021/04/25 07:51:13;;;;;;;8.05;4.90;;;14.60;55.50;;;;;;5019943;28;20055;-59
2021/04/25 07:53:39;;;;;;;8.30;4.60;;;14.60;55.60;;;;;;5021440;28;20021;-60
2021/04/25 07:56:05;;;;;;;8.02;4.60;;;14.50;55.50;;;;;;5021295;28;20041;-59
2021/04/25 07:58:30;;;;;;;9.05;4.80;;;14.50;55.50;;;;;;5021451;28;20082;-60
2021/04/25 08:00:56;;;;;;;7.30;4.68;;;14.50;55.40;;;;;;5036762;28;20037;-60
2021/04/25 08:03:21;;;;;;;12.25;5.00;;;14.50;55.40;;;;;;5019643;28;20587;-60
2021/04/25 08:05:47;;;;;;;7.45;5.22;;;14.50;55.30;;;;;;5038690;28;20112;-60
2021/04/25 08:08:12;;;;;;;9.65;5.68;;;14.50;55.20;;;;;;5003192;28;20039;-60
2021/04/25 08:10:38;;;;;;;12.93;5.63;;;14.50;55.30;;;;;;5040239;28;20037;-60
2021/04/25 08:13:03;;;;;;;10.68;5.95;;;14.50;55.30;;;;;;5033301;28;20136;-61
2021/04/25 08:15:29;;;;;;;11.77;5.75;;;14.50;55.40;;;;;;5018354;28;20021;-60
2021/04/25 08:17:57;;;;;;;11.90;5.88;;;14.40;55.40;;;;;;5039499;28;20033;-60
2021/04/25 08:20:23;;;;;;;12.57;6.18;;;14.50;55.50;;;;;;5041492;28;20033;-60
2021/04/25 08:22:49;;;;;;;14.43;7.00;;;14.40;55.40;;;;;;5021738;28;20013;-60
2021/04/25 08:25:14;;;;;;;15.77;6.60;;;14.40;55.40;;;;;;5020652;28;20384;-60
2021/04/25 08:27:40;;;;;;;10.60;6.40;;;14.40;55.40;;;;;;5004402;28;20033;-61
2021/04/25 08:30:06;;;;;;;10.43;6.88;;;14.40;55.50;;;;;;5019033;28;20272;-60
2021/04/25 08:32:31;;;;;;;10.85;7.03;;;14.40;55.50;;;;;;5037489;28;20025;-59
2021/04/25 08:34:57;;;;;;;19.83;6.97;;;14.40;55.40;;;;;;5021125;28;20126;-60
2021/04/25 08:37:23;;;;;;;19.00;7.28;;;14.50;55.60;;;;;;5018088;28;20519;-60
2021/04/25 08:39:48;;;;;;;12.75;7.05;;;14.40;55.40;;;;;;5016915;28;20152;-60
2021/04/25 08:42:14;;;;;;;18.15;7.18;;;14.40;55.30;;;;;;5037581;28;20069;-60
2021/04/25 08:44:41;;;;;;;22.08;7.78;;;14.50;55.40;;;;;;5006904;28;20484;-60
2021/04/25 08:47:07;;;;;;;21.60;7.65;;;14.50;55.30;;;;;;5043250;28;20056;-60
2021/04/25 08:49:34;;;;;;;22.73;7.47;;;14.50;55.50;;;;;;5008035;28;20883;-59
2021/04/25 08:51:59;;;;;;;23.05;7.63;;;14.50;55.50;;;;;;5020043;28;20087;-60
2021/04/25 08:54:25;;;;;;;26.83;8.13;;;14.50;55.40;;;;;;5022315;28;20423;-60
2021/04/25 08:56:51;;;;;;;29.25;8.77;;;14.60;55.60;;;;;;5022382;28;20025;-59
2021/04/25 08:59:17;;;;;;;39.63;9.90;;;14.60;55.60;;;;;;5040916;28;20033;-60
2021/04/25 09:01:43;;;;;;;57.15;10.32;;;14.60;55.90;;;;;;5004711;28;20036;-60
2021/04/25 09:04:08;;;;;;;57.00;10.40;;;14.60;55.80;;;;;;5041156;28;20037;-60
2021/04/25 09:06:34;;;;;;;61.15;12.13;;;14.70;55.70;;;;;;5039471;28;20041;-59
2021/04/25 09:09:00;;;;;;;56.65;11.82;;;14.70;56.00;;;;;;5039999;28;20032;-60
2021/04/25 09:11:36;;;;;;;62.08;11.48;;;14.70;56.10;;;;;;5022979;28;20123;-60
2021/04/25 09:14:25;;;;;;;55.05;11.60;;;14.70;56.20;;;;;;5041095;28;20033;-60
2021/04/25 09:16:58;;;;;;;44.28;10.98;;;14.80;56.00;;;;;;5038662;28;20025;-60
2021/04/25 09:19:25;;;;;;;74.85;13.30;;;14.80;56.00;;;;;;5021909;28;20048;-60
2021/04/25 09:21:58;;;;;;;63.30;11.68;;;14.80;56.20;;;;;;5020462;28;20090;-60
2021/04/25 09:24:31;;;;;;;63.83;13.25;;;14.90;56.20;;;;;;5020820;28;20025;-59
2021/04/25 09:26:57;;;;;;;71.10;13.25;;;14.90;56.00;;;;;;5026231;28;20536;-59
2021/04/25 09:29:25;;;;;;;42.83;10.88;;;15.00;56.10;;;;;;5022778;28;20124;-59
2021/04/25 09:31:51;;;;;;;94.03;16.25;;;15.00;56.10;;;;;;5020129;28;20073;-60
2021/04/25 09:34:27;;;;;;;80.90;14.75;;;15.00;56.00;;;;;;5019909;28;20476;-60
2021/04/25 09:36:54;;;;;;;57.58;13.63;;;14.90;56.10;;;;;;5042339;28;20049;-60
2021/04/25 09:39:20;;;;;;;53.75;12.60;;;15.00;56.10;;;;;;5021247;28;20021;-60
2021/04/25 09:41:46;;;;;;;106.18;16.50;;;15.00;56.30;;;;;;5023951;28;20040;-59
2021/04/25 09:44:31;;;;;;;100.72;18.38;;;15.00;56.00;;;;;;5007598;28;20045;-60
2021/04/25 09:46:59;;;;;;;66.88;13.80;;;15.00;55.70;;;;;;5037144;28;20803;-60
2021/04/25 09:49:48;;;;;;;56.17;14.30;;;15.00;55.40;;;;;;5004774;28;20475;-59
2021/04/25 09:52:26;;;;;;;70.35;15.18;;;15.10;55.00;;;;;;5007449;28;20044;-60
2021/04/25 09:54:52;;;;;;;65.03;12.70;;;15.10;55.30;;;;;;5040504;28;20053;-60
2021/04/25 09:57:33;;;;;;;47.03;12.63;;;15.20;55.00;;;;;;5039514;28;20536;-60
2021/04/25 09:59:58;;;;;;;55.92;13.80;;;15.20;54.40;;;;;;4989000;28;20029;-60
2021/04/25 10:02:24;;;;;;;67.50;14.38;;;15.10;54.60;;;;;;5036237;28;20035;-59
2021/04/25 10:04:50;;;;;;;54.83;13.20;;;15.20;54.40;;;;;;5005583;28;20030;-60
2021/04/25 10:07:16;;;;;;;69.50;15.55;;;15.30;54.60;;;;;;4986901;28;20034;-59
2021/04/25 10:09:41;;;;;;;86.10;15.40;;;15.30;55.50;;;;;;5015483;28;20095;-60
2021/04/25 10:12:07;;;;;;;56.08;12.57;;;15.30;55.50;;;;;;5035272;28;20118;-60
2021/04/25 10:14:33;;;;;;;49.92;13.57;;;15.30;55.40;;;;;;5019316;28;20409;-59
2021/04/25 10:17:00;;;;;;;48.20;14.35;;;15.30;55.10;;;;;;5021087;28;20115;-60
2021/04/25 10:19:26;;;;;;;55.33;14.80;;;15.40;55.00;;;;;;5004517;28;20030;-59
2021/04/25 10:21:52;;;;;;;58.05;13.13;;;15.40;55.00;;;;;;5022029;28;20088;-60
2021/04/25 10:24:21;;;;;;;58.70;13.35;;;15.40;54.90;;;;;;5037966;28;20033;-61
2021/04/25 10:27:00;;;;;;;41.03;12.45;;;15.50;54.60;;;;;;5039743;28;20026;-60
2021/04/25 10:29:44;;;;;;;32.30;11.98;;;15.50;53.80;;;;;;5006873;28;21070;-60
2021/04/25 10:32:10;;;;;;;48.80;12.48;;;15.50;53.70;;;;;;5007055;28;20052;-60
2021/04/25 10:34:35;;;;;;;52.03;12.98;;;15.60;54.10;;;;;;5020683;28;20468;-60
2021/04/25 10:37:05;;;;;;;38.30;13.18;;;15.60;54.30;;;;;;5034848;28;20489;-60
2021/04/25 10:39:55;;;;;;;52.42;13.55;;;15.70;54.60;;;;;;5018728;28;20052;-60
2021/04/25 10:42:24;;;;;;;46.45;12.88;;;15.70;54.50;;;;;;5021019;28;20556;-60
2021/04/25 10:45:06;;;;;;;41.53;12.98;;;15.70;54.70;;;;;;5041907;28;20033;-60
2021/04/25 10:47:32;;;;;;;36.85;11.35;;;15.80;54.40;;;;;;5036661;28;20049;-60
2021/04/25 10:50:01;;;;;;;42.30;12.10;;;15.80;53.60;;;;;;5038289;28;20033;-59
2021/04/25 10:52:34;;;;;;;71.75;13.05;;;15.80;54.00;;;;;;5009902;28;20043;-60
2021/04/25 10:55:12;;;;;;;40.88;12.57;;;15.90;54.10;;;;;;5028007;28;20056;-60
2021/04/25 11:00:30;;;;;;;40.75;12.73;;;16.00;53.30;;;;;;5043546;28;20090;-60
2021/04/25 11:02:56;;;;;;;45.33;11.57;;;16.00;53.30;;;;;;5041495;28;20068;-59
2021/04/25 11:05:37;;;;;;;39.90;13.20;;;16.00;53.30;;;;;;5044103;28;20487;-59
2021/04/25 11:08:12;;;;;;;47.70;12.70;;;16.10;53.40;;;;;;5045160;28;20029;-61
2021/04/25 11:10:49;;;;;;;44.20;13.65;;;16.20;53.30;;;;;;5028226;28;20036;-60
2021/04/25 11:13:39;;;;;;;36.63;11.70;;;16.20;53.10;;;;;;5025872;28;20279;-60
2021/04/25 11:16:08;;;;;;;38.63;11.38;;;16.30;53.10;;;;;;5041206;28;20041;-60
2021/04/25 11:18:49;;;;;;;44.05;11.75;;;16.40;53.20;;;;;;5041321;28;20036;-61
2021/04/25 11:24:04;;;;;;;44.17;11.23;;;16.50;53.10;;;;;;5044234;28;20029;-60
2021/04/25 11:26:39;;;;;;;54.05;12.55;;;16.60;53.30;;;;;;5042370;28;20021;-60
2021/04/25 11:29:13;;;;;;;40.07;11.93;;;16.70;52.80;;;;;;5042903;28;20124;-60
2021/04/25 11:31:57;;;;;;;33.08;11.30;;;16.80;52.30;;;;;;5040624;28;20603;-60
2021/04/25 11:34:25;;;;;;;31.17;12.02;;;16.90;51.90;;;;;;5038893;28;20029;-60
2021/04/25 11:37:19;;;;;;;36.65;11.50;;;16.90;51.60;;;;;;5042602;28;20052;-60
2021/04/25 11:39:48;;;;;;;29.40;11.68;;;17.10;52.20;;;;;;5042175;28;20045;-60
2021/04/25 11:42:24;;;;;;;45.45;11.70;;;17.20;49.80;;;;;;5042008;28;20112;-60
2021/04/25 11:44:50;;;;;;;47.53;11.52;;;17.30;50.60;;;;;;5043316;28;20021;-60
2021/04/25 11:47:16;;;;;;;52.83;13.00;;;17.40;51.10;;;;;;5041947;28;20063;-60
2021/04/25 11:49:52;;;;;;;43.95;11.50;;;17.50;51.20;;;;;;5006859;28;20452;-59
2021/04/25 11:52:47;;;;;;;37.35;10.20;;;17.50;51.10;;;;;;5042014;28;20453;-61
2021/04/25 11:55:15;;;;;;;40.60;11.02;;;17.70;50.90;;;;;;5015672;28;20077;-60
2021/04/25 11:57:42;;;;;;;34.97;10.68;;;17.70;50.60;;;;;;5041549;28;20574;-60
2021/04/25 12:00:11;;;;;;;31.60;10.68;;;17.80;49.80;;;;;;5025416;28;20438;-60
2021/04/25 12:02:53;;;;;;;32.47;10.77;;;17.80;49.60;;;;;;5034639;28;20021;-60
2021/04/25 12:05:21;;;;;;;59.97;11.30;;;17.90;48.50;;;;;;5041902;28;20025;-60
2021/04/25 12:08:05;;;;;;;60.20;12.23;;;18.00;48.70;;;;;;5019217;28;20068;-61
2021/04/25 12:10:33;;;;;;;42.13;10.65;;;18.00;48.70;;;;;;5023289;28;20028;-60
2021/04/25 12:13:09;;;;;;;40.28;10.77;;;18.10;48.50;;;;;;5024258;28;20135;-60
2021/04/25 12:15:40;;;;;;;;;;;18.20;48.70;;;;;;5042186;28;20104;-60
2021/04/25 12:18:05;;;;;;;44.25;11.10;;;18.30;48.50;;;;;;5037420;28;20764;-60
2021/04/25 12:20:31;;;;;;;41.72;10.00;;;18.30;48.30;;;;;;5036449;28;20033;-60
2021/04/25 12:22:56;;;;;;;48.33;9.55;;;18.40;48.10;;;;;;4997616;28;20503;-60
2021/04/25 12:25:22;;;;;;;45.10;10.60;;;18.40;48.10;;;;;;5037077;28;20032;-60
2021/04/25 12:27:48;;;;;;;38.80;10.15;;;18.50;48.30;;;;;;5033341;28;20029;-60
2021/04/25 12:30:22;;;;;;;36.65;10.30;;;18.50;48.20;;;;;;5001579;28;20029;-60
2021/04/25 12:33:00;;;;;;;56.45;10.15;;;18.60;48.30;;;;;;5033834;28;21635;-61
2021/04/25 12:35:26;;;;;;;46.95;9.50;;;18.70;48.20;;;;;;5016439;28;20041;-60
2021/04/25 12:37:51;;;;;;;45.33;11.13;;;18.80;48.00;;;;;;5022719;28;20029;-60
2021/04/25 12:40:32;;;;;;;39.40;9.75;;;18.80;47.90;;;;;;5032453;28;20075;-61
2021/04/25 12:43:11;;;;;;;34.05;9.35;;;18.90;47.50;;;;;;5016353;28;20031;-60
2021/04/25 12:45:37;;;;;;;29.60;8.00;;;18.90;47.60;;;;;;5020192;28;20108;-60